sensor_id;sensor_type;location;lat;lon;timestamp;pressure;altitude;pressure_sealevel;temperature;humidity
60258;BME280;46115;44.484;11.314;2022-12-07T00:02:52;100224.94;;;7.53;100.00
60258;BME280;46115;44.484;11.314;2022-12-07T00:06:54;100222.09;;;7.37;100.00
60258;BME280;46115;44.484;11.314;2022-12-07T00:11:01;100218.59;;;7.37;100.00
60258;BME280;46115;44.484;11.314;2022-12-07T00:15:05;100219.78;;;7.30;100.00
60258;BME280;46115;44.484;11.314;2022-12-07T00:19:10;100214.34;;;7.76;100.00
60258;BME280;46115;44.484;11.314;2022-12-07T00:23:13;100209.63;;;7.42;100.00
60258;BME280;46115;44.484;11.314;2022-12-07T00:27:16;100215.03;;;7.81;98.47
60258;BME280;46115;44.484;11.314;2022-12-07T00:31:20;100211.19;;;7.68;100.00
60258;BME280;46115;44.484;11.314;2022-12-07T00:35:23;100206.84;;;7.45;100.00
60258;BME280;46115;44.484;11.314;2022-12-07T00:39:25;100209.91;;;7.57;100.00
60258;BME280;46115;44.484;11.314;2022-12-07T00:43:30;100204.09;;;7.48;100.00
60258;BME280;46115;44.484;11.314;2022-12-07T00:47:33;100193.66;;;7.47;100.00
60258;BME280;46115;44.484;11.314;2022-12-07T00:51:35;100194.69;;;7.65;99.61
60258;BME280;46115;44.484;11.314;2022-12-07T00:55:40;100178.91;;;7.65;98.79
60258;BME280;46115;44.484;11.314;2022-12-07T00:59:44;100165.44;;;7.50;99.61
60258;BME280;46115;44.484;11.314;2022-12-07T01:03:47;100165.19;;;7.57;99.53
60258;BME280;46115;44.484;11.314;2022-12-07T01:07:49;100182.97;;;7.72;99.14
60258;BME280;46115;44.484;11.314;2022-12-07T01:11:52;100188.84;;;7.78;98.65
60258;BME280;46115;44.484;11.314;2022-12-07T01:15:59;100181.69;;;7.60;99.67
60258;BME280;46115;44.484;11.314;2022-12-07T01:20:03;100180.38;;;7.50;100.00
60258;BME280;46115;44.484;11.314;2022-12-07T01:24:09;100175.63;;;7.58;99.38
60258;BME280;46115;44.484;11.314;2022-12-07T01:28:11;100180.84;;;7.60;99.10
60258;BME280;46115;44.484;11.314;2022-12-07T01:32:15;100180.69;;;7.64;99.37
60258;BME280;46115;44.484;11.314;2022-12-07T01:36:18;100192.13;;;7.63;99.59
60258;BME280;46115;44.484;11.314;2022-12-07T01:40:24;100187.25;;;7.74;98.02
60258;BME280;46115;44.484;11.314;2022-12-07T01:44:27;100192.66;;;7.71;97.48
60258;BME280;46115;44.484;11.314;2022-12-07T01:48:34;100184.84;;;7.48;99.33
60258;BME280;46115;44.484;11.314;2022-12-07T01:52:41;100181.97;;;7.32;100.00
60258;BME280;46115;44.484;11.314;2022-12-07T01:56:52;100148.00;;;7.48;98.01
60258;BME280;46115;44.484;11.314;2022-12-07T02:01:00;100161.22;;;7.25;99.73
60258;BME280;46115;44.484;11.314;2022-12-07T02:05:13;100184.75;;;7.71;96.61
60258;BME280;46115;44.484;11.314;2022-12-07T02:09:16;100134.41;;;6.95;100.00
60258;BME280;46115;44.484;11.314;2022-12-07T02:13:20;100149.56;;;7.10;100.00
60258;BME280;46115;44.484;11.314;2022-12-07T02:17:28;100172.13;;;7.37;100.00
60258;BME280;46115;44.484;11.314;2022-12-07T02:21:40;100159.19;;;7.53;99.26
60258;BME280;46115;44.484;11.314;2022-12-07T02:25:55;100155.72;;;7.53;97.83
60258;BME280;46115;44.484;11.314;2022-12-07T02:30:01;100156.09;;;7.43;97.79
60258;BME280;46115;44.484;11.314;2022-12-07T02:34:07;100155.13;;;7.46;97.96
60258;BME280;46115;44.484;11.314;2022-12-07T02:38:14;100152.94;;;7.13;98.88
60258;BME280;46115;44.484;11.314;2022-12-07T02:42:25;100148.41;;;6.95;100.00
60258;BME280;46115;44.484;11.314;2022-12-07T02:46:33;100151.66;;;7.02;100.00
60258;BME280;46115;44.484;11.314;2022-12-07T02:51:05;100085.75;;;6.63;100.00
60258;BME280;46115;44.484;11.314;2022-12-07T02:55:08;100146.50;;;7.20;100.00
60258;BME280;46115;44.484;11.314;2022-12-07T02:59:17;100122.97;;;7.39;98.15
60258;BME280;46115;44.484;11.314;2022-12-07T03:03:57;100115.63;;;7.26;97.59
60258;BME280;46115;44.484;11.314;2022-12-07T03:08:09;100113.81;;;7.06;98.81
60258;BME280;46115;44.484;11.314;2022-12-07T03:12:35;100112.44;;;7.17;98.46
60258;BME280;46115;44.484;11.314;2022-12-07T03:16:42;100138.81;;;7.38;97.51
60258;BME280;46115;44.484;11.314;2022-12-07T03:20:53;100140.03;;;7.07;99.09
60258;BME280;46115;44.484;11.314;2022-12-07T03:25:04;100131.91;;;7.35;98.85
60258;BME280;46115;44.484;11.314;2022-12-07T03:29:14;100122.22;;;7.36;97.33
60258;BME280;46115;44.484;11.314;2022-12-07T03:33:25;100098.16;;;6.81;100.00
60258;BME280;46115;44.484;11.314;2022-12-07T03:37:43;100128.34;;;7.36;98.80
60258;BME280;46115;44.484;11.314;2022-12-07T03:41:48;100126.75;;;7.10;99.56
60258;BME280;46115;44.484;11.314;2022-12-07T03:46:00;100121.84;;;7.23;99.18
60258;BME280;46115;44.484;11.314;2022-12-07T03:50:08;100118.38;;;7.23;98.40
60258;BME280;46115;44.484;11.314;2022-12-07T03:54:29;100096.88;;;6.91;100.00
60258;BME280;46115;44.484;11.314;2022-12-07T03:58:51;100105.47;;;7.38;97.85
60258;BME280;46115;44.484;11.314;2022-12-07T04:02:55;100098.75;;;7.31;98.83
60258;BME280;46115;44.484;11.314;2022-12-07T04:06:57;100094.50;;;7.29;98.58
60258;BME280;46115;44.484;11.314;2022-12-07T04:11:01;100096.84;;;7.35;97.60
60258;BME280;46115;44.484;11.314;2022-12-07T04:15:04;100094.44;;;7.08;98.84
60258;BME280;46115;44.484;11.314;2022-12-07T04:19:07;100090.56;;;7.17;99.13
60258;BME280;46115;44.484;11.314;2022-12-07T04:23:09;100085.63;;;7.09;99.28
60258;BME280;46115;44.484;11.314;2022-12-07T04:27:13;100086.88;;;7.43;97.96
60258;BME280;46115;44.484;11.314;2022-12-07T04:31:16;100070.25;;;7.42;96.76
60258;BME280;46115;44.484;11.314;2022-12-07T04:35:18;100076.69;;;7.35;97.79
60258;BME280;46115;44.484;11.314;2022-12-07T04:39:22;100070.66;;;7.11;98.54
60258;BME280;46115;44.484;11.314;2022-12-07T04:43:26;100074.13;;;7.12;100.00
60258;BME280;46115;44.484;11.314;2022-12-07T04:47:29;100078.03;;;7.24;100.00
60258;BME280;46115;44.484;11.314;2022-12-07T04:51:31;100082.13;;;7.31;98.27
60258;BME280;46115;44.484;11.314;2022-12-07T04:55:34;100078.34;;;7.16;99.15
60258;BME280;46115;44.484;11.314;2022-12-07T04:59:38;100081.88;;;7.37;97.87
60258;BME280;46115;44.484;11.314;2022-12-07T05:03:40;100076.31;;;7.23;98.30
60258;BME280;46115;44.484;11.314;2022-12-07T05:07:43;100034.78;;;6.88;99.57
60258;BME280;46115;44.484;11.314;2022-12-07T05:11:45;100078.25;;;7.39;98.28
60258;BME280;46115;44.484;11.314;2022-12-07T05:15:50;100066.06;;;7.16;98.93
60258;BME280;46115;44.484;11.314;2022-12-07T05:19:52;100079.78;;;7.23;99.20
60258;BME280;46115;44.484;11.314;2022-12-07T05:23:55;100082.53;;;7.42;97.86
60258;BME280;46115;44.484;11.314;2022-12-07T05:27:58;100073.53;;;7.05;99.06
60258;BME280;46115;44.484;11.314;2022-12-07T05:32:01;100087.13;;;7.37;97.76
60258;BME280;46115;44.484;11.314;2022-12-07T05:36:04;100083.22;;;7.25;99.69
60258;BME280;46115;44.484;11.314;2022-12-07T05:40:09;100083.72;;;7.35;98.48
60258;BME280;46115;44.484;11.314;2022-12-07T05:44:12;100086.41;;;6.89;100.00
60258;BME280;46115;44.484;11.314;2022-12-07T05:48:17;100088.34;;;7.28;99.43
60258;BME280;46115;44.484;11.314;2022-12-07T05:52:19;100082.13;;;7.31;98.87
60258;BME280;46115;44.484;11.314;2022-12-07T05:56:23;100093.44;;;7.11;99.17
60258;BME280;46115;44.484;11.314;2022-12-07T06:00:25;100103.81;;;7.36;99.08
60258;BME280;46115;44.484;11.314;2022-12-07T06:04:32;100096.69;;;7.17;99.54
60258;BME280;46115;44.484;11.314;2022-12-07T06:08:35;100102.13;;;7.13;99.13
60258;BME280;46115;44.484;11.314;2022-12-07T06:12:37;100105.66;;;7.34;98.91
60258;BME280;46115;44.484;11.314;2022-12-07T06:16:43;100110.88;;;7.35;99.23
60258;BME280;46115;44.484;11.314;2022-12-07T06:20:47;100107.06;;;7.20;99.34
60258;BME280;46115;44.484;11.314;2022-12-07T06:24:49;100099.63;;;7.10;100.00
60258;BME280;46115;44.484;11.314;2022-12-07T06:28:52;100104.09;;;7.30;98.46
60258;BME280;46115;44.484;11.314;2022-12-07T06:32:55;100103.03;;;7.34;98.42
60258;BME280;46115;44.484;11.314;2022-12-07T06:36:59;100097.22;;;7.26;98.70
60258;BME280;46115;44.484;11.314;2022-12-07T06:41:01;100094.88;;;6.98;99.79
60258;BME280;46115;44.484;11.314;2022-12-07T06:45:04;100099.56;;;7.33;97.31
60258;BME280;46115;44.484;11.314;2022-12-07T06:49:07;100096.56;;;7.20;97.81
60258;BME280;46115;44.484;11.314;2022-12-07T06:53:11;100093.16;;;6.97;98.51
60258;BME280;46115;44.484;11.314;2022-12-07T06:57:13;100114.09;;;7.20;97.18
60258;BME280;46115;44.484;11.314;2022-12-07T07:01:16;100118.03;;;7.10;97.89
60258;BME280;46115;44.484;11.314;2022-12-07T07:05:19;100110.16;;;7.52;95.67
60258;BME280;46115;44.484;11.314;2022-12-07T07:09:24;100121.13;;;7.19;97.12
60258;BME280;46115;44.484;11.314;2022-12-07T07:13:27;100130.00;;;7.59;94.69
60258;BME280;46115;44.484;11.314;2022-12-07T07:17:30;100130.25;;;7.33;95.46
60258;BME280;46115;44.484;11.314;2022-12-07T07:21:32;100133.94;;;7.29;96.25
60258;BME280;46115;44.484;11.314;2022-12-07T07:25:36;100147.22;;;7.46;94.32
60258;BME280;46115;44.484;11.314;2022-12-07T07:29:38;100132.38;;;7.23;96.17
60258;BME280;46115;44.484;11.314;2022-12-07T07:33:40;100141.25;;;7.63;93.95
60258;BME280;46115;44.484;11.314;2022-12-07T07:37:43;100142.88;;;7.45;94.36
60258;BME280;46115;44.484;11.314;2022-12-07T07:41:46;100145.91;;;7.56;93.11
60258;BME280;46115;44.484;11.314;2022-12-07T07:45:58;100146.91;;;7.54;94.83
60258;BME280;46115;44.484;11.314;2022-12-07T07:50:00;100144.50;;;7.69;93.28
60258;BME280;46115;44.484;11.314;2022-12-07T07:54:03;100146.88;;;7.75;93.60
60258;BME280;46115;44.484;11.314;2022-12-07T07:58:07;100137.59;;;7.87;92.55
60258;BME280;46115;44.484;11.314;2022-12-07T08:02:13;100153.72;;;7.79;93.18
60258;BME280;46115;44.484;11.314;2022-12-07T08:06:16;100142.63;;;7.51;93.51
60258;BME280;46115;44.484;11.314;2022-12-07T08:10:19;100163.19;;;7.83;92.85
60258;BME280;46115;44.484;11.314;2022-12-07T08:14:23;100147.63;;;7.57;93.68
60258;BME280;46115;44.484;11.314;2022-12-07T08:18:26;100150.66;;;7.48;94.56
60258;BME280;46115;44.484;11.314;2022-12-07T08:22:29;100149.16;;;7.83;92.62
60258;BME280;46115;44.484;11.314;2022-12-07T08:26:32;100176.34;;;7.83;93.15
60258;BME280;46115;44.484;11.314;2022-12-07T08:30:36;100168.13;;;7.71;93.19
60258;BME280;46115;44.484;11.314;2022-12-07T08:34:39;100171.22;;;8.01;92.04
60258;BME280;46115;44.484;11.314;2022-12-07T08:38:42;100177.53;;;7.76;92.87
60258;BME280;46115;44.484;11.314;2022-12-07T08:42:48;100169.38;;;7.82;92.40
60258;BME280;46115;44.484;11.314;2022-12-07T08:46:55;100191.06;;;7.88;92.64
60258;BME280;46115;44.484;11.314;2022-12-07T08:50:58;100186.78;;;7.85;93.22
60258;BME280;46115;44.484;11.314;2022-12-07T08:55:05;100190.03;;;8.12;92.16
60258;BME280;46115;44.484;11.314;2022-12-07T08:59:08;100171.53;;;7.93;91.88
60258;BME280;46115;44.484;11.314;2022-12-07T09:03:12;100195.28;;;7.92;93.86
60258;BME280;46115;44.484;11.314;2022-12-07T09:07:15;100193.63;;;8.30;91.97
60258;BME280;46115;44.484;11.314;2022-12-07T09:11:21;100189.56;;;7.82;93.61
60258;BME280;46115;44.484;11.314;2022-12-07T09:15:24;100192.19;;;7.82;94.77
60258;BME280;46115;44.484;11.314;2022-12-07T09:19:28;100202.75;;;8.02;94.43
60258;BME280;46115;44.484;11.314;2022-12-07T09:23:31;100165.91;;;7.60;94.10
60258;BME280;46115;44.484;11.314;2022-12-07T09:27:33;100204.31;;;8.27;91.62
60258;BME280;46115;44.484;11.314;2022-12-07T09:31:37;100168.97;;;8.12;92.71
60258;BME280;46115;44.484;11.314;2022-12-07T09:35:45;100166.94;;;7.78;93.27
60258;BME280;46115;44.484;11.314;2022-12-07T09:39:48;100207.25;;;8.41;92.51
60258;BME280;46115;44.484;11.314;2022-12-07T09:43:50;100199.25;;;8.42;91.50
60258;BME280;46115;44.484;11.314;2022-12-07T09:47:53;100186.19;;;8.60;90.88
60258;BME280;46115;44.484;11.314;2022-12-07T09:52:03;100180.19;;;8.56;91.40
60258;BME280;46115;44.484;11.314;2022-12-07T09:56:19;100170.75;;;8.71;90.82
60258;BME280;46115;44.484;11.314;2022-12-07T10:00:23;100170.09;;;8.85;89.14
60258;BME280;46115;44.484;11.314;2022-12-07T10:04:26;100168.03;;;8.91;89.30
60258;BME280;46115;44.484;11.314;2022-12-07T10:08:32;100151.84;;;8.61;90.43
60258;BME280;46115;44.484;11.314;2022-12-07T10:12:53;100153.25;;;8.70;90.17
60258;BME280;46115;44.484;11.314;2022-12-07T10:16:56;100121.84;;;9.01;87.60
60258;BME280;46115;44.484;11.314;2022-12-07T10:21:12;100113.31;;;8.96;87.38
60258;BME280;46115;44.484;11.314;2022-12-07T10:25:20;100132.00;;;8.54;89.32
60258;BME280;46115;44.484;11.314;2022-12-07T10:29:24;100118.97;;;8.70;88.70
60258;BME280;46115;44.484;11.314;2022-12-07T10:33:33;100132.47;;;9.00;87.12
60258;BME280;46115;44.484;11.314;2022-12-07T10:37:40;100150.38;;;8.93;88.18
60258;BME280;46115;44.484;11.314;2022-12-07T10:41:59;100143.09;;;8.98;87.00
60258;BME280;46115;44.484;11.314;2022-12-07T10:50:52;100117.28;;;8.69;88.83
60258;BME280;46115;44.484;11.314;2022-12-07T10:55:07;100121.19;;;9.15;86.70
60258;BME280;46115;44.484;11.314;2022-12-07T10:59:46;100128.47;;;9.10;86.37
60258;BME280;46115;44.484;11.314;2022-12-07T11:04:01;100122.75;;;9.19;86.82
60258;BME280;46115;44.484;11.314;2022-12-07T11:08:16;100119.59;;;9.30;85.30
60258;BME280;46115;44.484;11.314;2022-12-07T11:12:32;100115.59;;;9.04;86.99
60258;BME280;46115;44.484;11.314;2022-12-07T11:16:50;100111.66;;;9.13;86.68
60258;BME280;46115;44.484;11.314;2022-12-07T11:20:59;100098.41;;;9.14;86.95
60258;BME280;46115;44.484;11.314;2022-12-07T11:25:20;100099.03;;;9.36;86.08
60258;BME280;46115;44.484;11.314;2022-12-07T11:29:44;100094.59;;;9.20;86.15
60258;BME280;46115;44.484;11.314;2022-12-07T11:33:54;100091.13;;;9.00;86.79
60258;BME280;46115;44.484;11.314;2022-12-07T11:38:07;100082.34;;;9.19;85.22
60258;BME280;46115;44.484;11.314;2022-12-07T11:42:15;100080.34;;;9.41;85.45
60258;BME280;46115;44.484;11.314;2022-12-07T11:46:20;100073.44;;;9.21;84.78
60258;BME280;46115;44.484;11.314;2022-12-07T11:50:33;100075.94;;;9.42;84.37
60258;BME280;46115;44.484;11.314;2022-12-07T11:54:42;100074.22;;;9.75;83.64
60258;BME280;46115;44.484;11.314;2022-12-07T11:58:49;100071.19;;;9.65;82.56
60258;BME280;46115;44.484;11.314;2022-12-07T12:02:58;100067.44;;;9.87;81.56
60258;BME280;46115;44.484;11.314;2022-12-07T12:07:06;100060.56;;;9.50;83.14
60258;BME280;46115;44.484;11.314;2022-12-07T12:11:18;100053.13;;;9.91;82.57
60258;BME280;46115;44.484;11.314;2022-12-07T12:15:42;100055.44;;;9.97;82.31
60258;BME280;46115;44.484;11.314;2022-12-07T12:19:59;100028.94;;;9.83;80.46
60258;BME280;46115;44.484;11.314;2022-12-07T12:24:09;100042.75;;;9.88;81.33
60258;BME280;46115;44.484;11.314;2022-12-07T12:28:21;100037.78;;;10.15;79.92
60258;BME280;46115;44.484;11.314;2022-12-07T12:32:34;100032.25;;;9.86;80.46
60258;BME280;46115;44.484;11.314;2022-12-07T12:36:46;100050.50;;;9.91;80.45
60258;BME280;46115;44.484;11.314;2022-12-07T12:40:50;100048.47;;;10.29;80.20
60258;BME280;46115;44.484;11.314;2022-12-07T12:45:11;100047.09;;;9.89;80.74
60258;BME280;46115;44.484;11.314;2022-12-07T12:49:36;100039.19;;;10.22;79.13
60258;BME280;46115;44.484;11.314;2022-12-07T12:53:40;100033.09;;;10.20;78.17
60258;BME280;46115;44.484;11.314;2022-12-07T12:57:44;100019.06;;;9.86;78.59
60258;BME280;46115;44.484;11.314;2022-12-07T13:01:47;100011.06;;;9.88;79.40
60258;BME280;46115;44.484;11.314;2022-12-07T13:06:17;100025.31;;;10.01;78.67
60258;BME280;46115;44.484;11.314;2022-12-07T13:10:23;100032.25;;;9.86;80.94
60258;BME280;46115;44.484;11.314;2022-12-07T13:14:54;100021.63;;;10.37;77.62
60258;BME280;46115;44.484;11.314;2022-12-07T13:18:57;100024.72;;;10.45;78.58
60258;BME280;46115;44.484;11.314;2022-12-07T13:23:00;100029.56;;;10.37;79.06
60258;BME280;46115;44.484;11.314;2022-12-07T13:27:06;100023.34;;;10.05;79.05
60258;BME280;46115;44.484;11.314;2022-12-07T13:31:30;100023.63;;;10.16;78.95
60258;BME280;46115;44.484;11.314;2022-12-07T13:35:35;100021.97;;;9.97;79.75
60258;BME280;46115;44.484;11.314;2022-12-07T13:39:45;100016.16;;;9.75;80.61
60258;BME280;46115;44.484;11.314;2022-12-07T13:43:51;99977.19;;;9.13;82.78
60258;BME280;46115;44.484;11.314;2022-12-07T13:47:58;100000.41;;;9.89;80.74
60258;BME280;46115;44.484;11.314;2022-12-07T13:52:15;100012.84;;;9.54;81.63
60258;BME280;46115;44.484;11.314;2022-12-07T13:56:18;100018.09;;;9.72;82.05
60258;BME280;46115;44.484;11.314;2022-12-07T14:00:24;100013.03;;;9.67;82.30
60258;BME280;46115;44.484;11.314;2022-12-07T14:04:33;100001.16;;;9.08;85.71
60258;BME280;46115;44.484;11.314;2022-12-07T14:08:36;100005.84;;;9.53;84.24
60258;BME280;46115;44.484;11.314;2022-12-07T14:12:38;100016.56;;;9.50;84.70
60258;BME280;46115;44.484;11.314;2022-12-07T14:16:56;100008.03;;;9.28;85.00
60258;BME280;46115;44.484;11.314;2022-12-07T14:21:14;100012.28;;;9.30;84.62
60258;BME280;46115;44.484;11.314;2022-12-07T14:25:20;100003.38;;;8.98;85.93
60258;BME280;46115;44.484;11.314;2022-12-07T14:29:31;100008.25;;;8.89;87.13
60258;BME280;46115;44.484;11.314;2022-12-07T14:33:34;100011.34;;;8.80;88.02
60258;BME280;46115;44.484;11.314;2022-12-07T14:37:37;100021.97;;;8.78;87.44
60258;BME280;46115;44.484;11.314;2022-12-07T14:41:40;100010.81;;;8.90;88.07
60258;BME280;46115;44.484;11.314;2022-12-07T14:46:03;100018.47;;;8.95;88.41
60258;BME280;46115;44.484;11.314;2022-12-07T14:50:07;99989.03;;;8.87;87.19
60258;BME280;46115;44.484;11.314;2022-12-07T14:54:15;100013.78;;;8.65;89.02
60258;BME280;46115;44.484;11.314;2022-12-07T14:58:18;100025.31;;;8.63;89.46
60258;BME280;46115;44.484;11.314;2022-12-07T15:02:21;100018.25;;;9.34;89.85
60258;BME280;46115;44.484;11.314;2022-12-07T15:06:24;100021.47;;;8.70;89.28
60258;BME280;46115;44.484;11.314;2022-12-07T15:10:30;100026.53;;;8.74;89.06
60258;BME280;46115;44.484;11.314;2022-12-07T15:14:33;100028.88;;;8.62;90.45
60258;BME280;46115;44.484;11.314;2022-12-07T15:18:36;100036.53;;;8.49;89.52
60258;BME280;46115;44.484;11.314;2022-12-07T15:22:38;100036.00;;;8.60;90.10
60258;BME280;46115;44.484;11.314;2022-12-07T15:26:42;100037.19;;;8.35;91.07
60258;BME280;46115;44.484;11.314;2022-12-07T15:30:45;100042.41;;;8.54;90.32
60258;BME280;46115;44.484;11.314;2022-12-07T15:34:48;100034.94;;;8.64;89.51
60258;BME280;46115;44.484;11.314;2022-12-07T15:38:51;100025.75;;;8.54;88.89
60258;BME280;46115;44.484;11.314;2022-12-07T15:42:55;100042.28;;;8.57;90.50
60258;BME280;46115;44.484;11.314;2022-12-07T15:46:57;100037.28;;;8.13;92.40
60258;BME280;46115;44.484;11.314;2022-12-07T15:51:03;100037.25;;;8.32;92.49
60258;BME280;46115;44.484;11.314;2022-12-07T23:06:11;100085.81;;;5.91;100.00
60258;BME280;46115;44.484;11.314;2022-12-07T23:10:14;100079.53;;;6.18;100.00
60258;BME280;46115;44.484;11.314;2022-12-07T23:14:18;100084.84;;;6.17;100.00
60258;BME280;46115;44.484;11.314;2022-12-07T23:18:21;100077.31;;;6.08;100.00
60258;BME280;46115;44.484;11.314;2022-12-07T23:22:25;100066.66;;;6.12;100.00
60258;BME280;46115;44.484;11.314;2022-12-07T23:26:27;100064.16;;;6.09;100.00
60258;BME280;46115;44.484;11.314;2022-12-07T23:30:30;100058.16;;;6.06;100.00
60258;BME280;46115;44.484;11.314;2022-12-07T23:34:32;100060.31;;;6.18;100.00
60258;BME280;46115;44.484;11.314;2022-12-07T23:38:36;100059.94;;;6.50;100.00
60258;BME280;46115;44.484;11.314;2022-12-07T23:42:39;100048.72;;;6.23;100.00
60258;BME280;46115;44.484;11.314;2022-12-07T23:46:41;100056.91;;;6.16;100.00
60258;BME280;46115;44.484;11.314;2022-12-07T23:50:43;100057.63;;;6.43;100.00
60258;BME280;46115;44.484;11.314;2022-12-07T23:54:47;100051.88;;;6.33;100.00
60258;BME280;46115;44.484;11.314;2022-12-07T23:58:50;100044.13;;;6.30;100.00
